METAR Data
IDs: Format: Raw Decoded Include TAF

Data at: 1536 UTC 04 Aug 2021

EKSP 041520Z 14002KT 9999 FEW048 BKN054 20/08 Q1015